createdAt,value
2022-11-29T00:01:30.475Z,9.57
2022-11-29T00:05:42.107Z,9.59
2022-11-29T00:09:53.639Z,9.57
2022-11-29T00:14:06.791Z,9.61
2022-11-29T00:18:18.329Z,9.56
2022-11-29T00:22:30.146Z,9.50
2022-11-29T00:26:41.736Z,9.53
2022-11-29T00:30:53.360Z,9.53
2022-11-29T00:35:09.647Z,9.62
2022-11-29T00:39:21.640Z,9.63
2022-11-29T00:43:33.726Z,9.63
2022-11-29T00:47:45.249Z,9.47
2022-11-29T00:51:56.776Z,9.50
2022-11-29T00:56:08.641Z,9.43
2022-11-29T01:00:20.501Z,9.43
2022-11-29T01:04:32.115Z,9.49
2022-11-29T01:08:45.655Z,9.57
2022-11-29T01:12:57.257Z,9.55
2022-11-29T01:17:08.825Z,9.60
2022-11-29T01:21:22.816Z,9.61
2022-11-29T01:25:34.348Z,9.60
2022-11-29T01:29:45.927Z,9.60
2022-11-29T01:34:00.146Z,9.59
2022-11-29T01:38:11.680Z,9.57
2022-11-29T01:42:23.425Z,9.63
2022-11-29T01:46:38.399Z,9.66
2022-11-29T01:50:50.835Z,9.65
2022-11-29T01:55:05.435Z,9.67
2022-11-29T01:59:21.893Z,9.59
2022-11-29T02:03:33.537Z,9.63
2022-11-29T02:07:50.001Z,9.58
2022-11-29T02:12:19.852Z,9.65
2022-11-29T02:16:40.861Z,9.64
2022-11-29T02:21:47.210Z,9.64
2022-11-29T02:26:35.612Z,9.67
2022-11-29T02:31:05.322Z,9.66
2022-11-29T02:35:29.129Z,9.61
2022-11-29T02:40:06.970Z,9.56
2022-11-29T02:44:21.377Z,9.59
2022-11-29T02:48:46.308Z,9.62
2022-11-29T02:53:22.838Z,9.64
2022-11-29T02:57:58.488Z,9.59
2022-11-29T03:02:40.370Z,9.55
2022-11-29T03:07:25.455Z,9.57
2022-11-29T03:12:06.928Z,9.57
2022-11-29T03:16:44.772Z,9.53
2022-11-29T03:21:05.402Z,9.63
2022-11-29T03:25:32.889Z,9.57
2022-11-29T03:29:55.618Z,9.47
2022-11-29T03:34:44.095Z,9.47
2022-11-29T03:39:00.875Z,9.47
2022-11-29T03:43:26.793Z,9.52
2022-11-29T03:47:57.967Z,9.48
2022-11-29T03:52:26.695Z,9.47
2022-11-29T03:56:40.537Z,9.43
2022-11-29T04:01:13.845Z,9.46
2022-11-29T04:05:41.020Z,9.47
2022-11-29T04:10:25.514Z,9.51
2022-11-29T04:15:23.468Z,9.54
2022-11-29T04:19:53.967Z,9.52
2022-11-29T04:24:34.872Z,9.46
2022-11-29T04:28:49.408Z,9.45
2022-11-29T04:33:21.434Z,9.40
2022-11-29T04:37:57.818Z,9.44
2022-11-29T04:42:18.678Z,9.38
2022-11-29T04:46:56.461Z,9.45
2022-11-29T04:51:29.851Z,9.45
2022-11-29T04:56:11.192Z,9.42
2022-11-29T05:00:24.321Z,9.36
2022-11-29T05:04:53.268Z,9.43
2022-11-29T05:09:17.355Z,9.37
2022-11-29T05:13:45.339Z,9.39
2022-11-29T05:18:07.525Z,9.40
2022-11-29T05:22:32.032Z,9.38
2022-11-29T05:27:11.001Z,9.36
2022-11-29T05:31:52.839Z,9.38
2022-11-29T05:36:42.055Z,9.37
2022-11-29T05:41:01.627Z,9.38
2022-11-29T05:45:19.298Z,9.33
2022-11-29T05:50:03.196Z,9.41
2022-11-29T05:54:19.849Z,9.39
2022-11-29T05:58:44.700Z,9.41
2022-11-29T06:03:19.743Z,9.38
2022-11-29T06:07:39.665Z,9.36
2022-11-29T06:12:14.866Z,9.40
2022-11-29T06:17:05.942Z,9.38
2022-11-29T06:21:39.120Z,9.39
2022-11-29T06:26:18.002Z,9.37
2022-11-29T06:30:53.573Z,9.37
2022-11-29T06:35:13.241Z,9.26
2022-11-29T06:39:25.067Z,9.29
2022-11-29T06:43:36.853Z,9.27
2022-11-29T06:48:28.095Z,9.29
2022-11-29T06:52:58.456Z,9.27
2022-11-29T06:57:12.997Z,9.25
2022-11-29T07:01:41.993Z,9.17
2022-11-29T07:05:53.868Z,9.20
2022-11-29T07:10:10.577Z,9.21
2022-11-29T07:14:25.497Z,9.21
2022-11-29T07:19:14.428Z,9.30
2022-11-29T07:23:43.721Z,9.31
2022-11-29T07:28:26.466Z,9.32
2022-11-29T07:32:43.641Z,9.25
2022-11-29T07:37:04.779Z,9.17
2022-11-29T07:41:32.223Z,9.23
2022-11-29T07:45:43.885Z,9.21
2022-11-29T07:49:55.434Z,9.17
2022-11-29T07:54:07.164Z,9.16
2022-11-29T07:58:19.059Z,9.11
2022-11-29T08:02:32.331Z,9.17
2022-11-29T08:06:43.959Z,9.12
2022-11-29T08:10:55.577Z,9.17
2022-11-29T08:15:08.738Z,9.16
2022-11-29T08:19:20.335Z,9.19
2022-11-29T08:23:31.903Z,9.22
2022-11-29T08:27:43.529Z,9.25
2022-11-29T08:31:55.331Z,9.23
2022-11-29T08:36:15.994Z,9.26
2022-11-29T08:40:27.618Z,9.31
2022-11-29T08:44:39.209Z,9.32
2022-11-29T08:48:50.746Z,9.33
2022-11-29T08:53:43.700Z,9.43
2022-11-29T08:58:01.866Z,9.47
2022-11-29T09:02:13.446Z,9.38
2022-11-29T09:06:26.500Z,9.42
2022-11-29T09:10:42.187Z,9.48
2022-11-29T09:14:53.755Z,9.46
2022-11-29T09:19:05.768Z,9.45
2022-11-29T09:23:17.322Z,9.45
2022-11-29T09:27:28.958Z,9.39
2022-11-29T09:31:40.593Z,9.40
2022-11-29T09:35:58.084Z,9.48
2022-11-29T09:40:18.175Z,9.53
2022-11-29T09:44:48.614Z,9.59
2022-11-29T09:49:09.354Z,9.65
2022-11-29T09:53:48.053Z,9.64
2022-11-29T09:58:01.527Z,9.66
2022-11-29T10:02:22.464Z,9.69
2022-11-29T10:06:40.791Z,9.75
2022-11-29T10:11:36.088Z,9.82
2022-11-29T10:15:53.247Z,9.78
2022-11-29T10:20:17.111Z,9.81
2022-11-29T10:24:29.839Z,9.89
2022-11-29T10:28:48.570Z,9.86
2022-11-29T10:33:00.674Z,9.88
2022-11-29T10:37:22.445Z,9.97
2022-11-29T10:41:35.751Z,10.10
2022-11-29T10:45:56.127Z,10.19
2022-11-29T10:50:13.308Z,10.20
2022-11-29T10:54:38.410Z,10.29
2022-11-29T10:58:56.389Z,10.29
2022-11-29T11:03:33.940Z,10.22
2022-11-29T11:07:47.419Z,10.09
2022-11-29T11:12:02.872Z,10.10
2022-11-29T11:16:24.268Z,10.22
2022-11-29T11:20:40.344Z,10.20
2022-11-29T11:25:01.128Z,10.27
2022-11-29T11:29:22.457Z,10.34
2022-11-29T11:33:42.364Z,10.43
2022-11-29T11:37:56.813Z,10.30
2022-11-29T11:42:33.628Z,10.45
2022-11-29T11:46:50.267Z,10.52
2022-11-29T11:51:03.418Z,10.53
2022-11-29T11:55:21.201Z,10.70
2022-11-29T11:59:33.948Z,10.81
2022-11-29T12:03:52.830Z,10.64
2022-11-29T12:08:08.124Z,10.79
2022-11-29T12:12:26.206Z,10.70
2022-11-29T12:16:39.202Z,10.82
2022-11-29T12:21:17.556Z,10.89
2022-11-29T12:25:35.979Z,10.83
2022-11-29T12:29:47.569Z,10.77
2022-11-29T12:34:10.230Z,10.80
2022-11-29T12:38:49.561Z,10.89
2022-11-29T12:43:23.040Z,10.81
2022-11-29T12:47:40.992Z,10.84
2022-11-29T12:52:03.955Z,10.87
2022-11-29T12:56:34.247Z,10.89
2022-11-29T13:00:52.466Z,10.77
2022-11-29T13:05:19.086Z,10.79
2022-11-29T13:10:14.967Z,10.82
2022-11-29T13:14:43.889Z,10.74
2022-11-29T13:19:03.149Z,10.61
2022-11-29T13:24:07.870Z,10.56
2022-11-29T13:28:39.573Z,10.52
2022-11-29T13:32:59.041Z,10.37
2022-11-29T13:37:53.561Z,10.24
2022-11-29T13:42:25.087Z,10.12
2022-11-29T13:47:08.562Z,10.01
2022-11-29T13:51:30.566Z,10.10
2022-11-29T13:55:59.810Z,10.24
2022-11-29T14:00:39.785Z,10.30
2022-11-29T14:04:52.370Z,10.34
2022-11-29T14:09:21.054Z,10.29
2022-11-29T14:13:49.967Z,10.28
2022-11-29T14:18:07.251Z,10.25
2022-11-29T14:22:22.155Z,10.23
2022-11-29T14:26:33.819Z,10.23
2022-11-29T14:30:51.047Z,10.21
2022-11-29T14:35:11.806Z,10.36
2022-11-29T14:39:33.166Z,10.49
2022-11-29T14:43:44.837Z,10.49
2022-11-29T14:47:57.402Z,10.36
2022-11-29T14:52:21.575Z,10.34
2022-11-29T14:56:35.031Z,10.38
2022-11-29T15:00:49.546Z,10.23
2022-11-29T15:05:16.744Z,10.17
2022-11-29T15:09:30.075Z,10.10
2022-11-29T15:13:55.038Z,9.99
2022-11-29T15:18:19.994Z,9.89
2022-11-29T15:22:46.780Z,9.82
2022-11-29T15:27:01.064Z,9.75
2022-11-29T15:31:16.214Z,9.74
2022-11-29T15:35:28.544Z,9.76
2022-11-29T15:39:40.251Z,9.78
2022-11-29T15:43:55.897Z,9.76
2022-11-29T15:48:24.096Z,9.77
2022-11-29T15:52:38.417Z,9.66
2022-11-29T15:57:00.642Z,9.64
2022-11-29T16:01:20.019Z,9.62
2022-11-29T16:05:35.104Z,9.59
2022-11-29T16:09:56.943Z,9.65
2022-11-29T16:14:11.420Z,9.62
2022-11-29T16:18:25.483Z,9.59
2022-11-29T16:22:37.092Z,9.64
2022-11-29T16:26:50.930Z,9.63
2022-11-29T16:31:04.779Z,9.61
2022-11-29T16:35:22.125Z,9.59
2022-11-29T16:39:36.983Z,9.58
2022-11-29T16:43:55.195Z,9.64
2022-11-29T16:48:21.917Z,9.64
2022-11-29T16:52:34.415Z,9.60
2022-11-29T16:56:45.988Z,9.59
2022-11-29T17:00:57.552Z,9.57
2022-11-29T17:05:09.128Z,9.57
2022-11-29T17:09:27.120Z,9.59
2022-11-29T17:13:38.837Z,9.56
2022-11-29T17:17:50.427Z,9.58
2022-11-29T17:22:02.110Z,9.51
2022-11-29T17:26:15.436Z,9.49
2022-11-29T17:30:28.870Z,9.49
2022-11-29T17:34:40.441Z,9.49
2022-11-29T17:38:52.194Z,9.51
2022-11-29T17:43:03.766Z,9.45
2022-11-29T17:47:15.353Z,9.47
2022-11-29T17:56:09.951Z,9.43
2022-11-29T18:00:21.556Z,9.44
2022-11-29T18:04:33.150Z,9.45
2022-11-29T18:08:47.710Z,9.47
2022-11-29T18:12:59.273Z,9.53
2022-11-29T18:17:10.945Z,9.46
2022-11-29T18:21:22.830Z,9.47
2022-11-29T18:25:39.121Z,9.51
2022-11-29T18:29:51.507Z,9.54
2022-11-29T18:34:06.983Z,9.52
2022-11-29T18:38:18.833Z,9.50
2022-11-29T18:42:30.432Z,9.53
2022-11-29T18:46:44.040Z,9.54
2022-11-29T18:50:55.606Z,9.58
2022-11-29T18:55:07.555Z,9.54
2022-11-29T18:59:19.169Z,9.54
2022-11-29T19:03:34.106Z,9.57
2022-11-29T19:07:45.733Z,9.58
2022-11-29T19:11:57.326Z,9.56
2022-11-29T19:16:13.407Z,9.55
2022-11-29T19:20:25.582Z,9.50
2022-11-29T19:24:37.069Z,9.53
2022-11-29T19:28:48.683Z,9.51
2022-11-29T19:33:00.246Z,9.50
2022-11-29T19:37:11.896Z,9.54
2022-11-29T19:41:26.190Z,9.51
2022-11-29T19:45:40.941Z,9.51
2022-11-29T19:49:52.885Z,9.52
2022-11-29T19:54:07.095Z,9.50
2022-11-29T19:58:20.820Z,9.52
2022-11-29T20:02:32.548Z,9.52
2022-11-29T20:06:44.527Z,9.55
2022-11-29T20:10:56.433Z,9.54
2022-11-29T20:15:08.328Z,9.55
2022-11-29T20:19:21.580Z,9.51
2022-11-29T20:23:33.658Z,9.53
2022-11-29T20:27:45.203Z,9.57
2022-11-29T20:31:56.848Z,9.60
2022-11-29T20:36:25.771Z,9.63
2022-11-29T20:40:50.967Z,9.65
2022-11-29T20:45:11.261Z,9.62
2022-11-29T20:49:23.006Z,9.64
2022-11-29T20:53:40.152Z,9.67
2022-11-29T20:57:51.723Z,9.64
2022-11-29T21:02:03.649Z,9.62
2022-11-29T21:06:15.370Z,9.58
2022-11-29T21:10:26.956Z,9.61
2022-11-29T21:14:38.844Z,9.55
2022-11-29T21:18:58.898Z,9.62
2022-11-29T21:23:27.046Z,9.59
2022-11-29T21:27:38.843Z,9.61
2022-11-29T21:31:53.826Z,9.64
2022-11-29T21:36:06.192Z,9.59
2022-11-29T21:40:17.813Z,9.61
2022-11-29T21:44:29.367Z,9.60
2022-11-29T21:48:42.432Z,9.61
2022-11-29T21:52:55.020Z,9.59
2022-11-29T21:57:06.652Z,9.62
2022-11-29T22:01:20.105Z,9.64
2022-11-29T22:05:31.724Z,9.66
2022-11-29T22:09:43.347Z,9.65
2022-11-29T22:14:13.617Z,9.72
2022-11-29T22:18:27.832Z,9.66
2022-11-29T22:22:39.433Z,9.63
2022-11-29T22:26:52.571Z,9.56
2022-11-29T22:31:12.294Z,9.53
2022-11-29T22:35:23.958Z,9.49
2022-11-29T22:39:35.524Z,9.40
2022-11-29T22:43:47.117Z,9.37
2022-11-29T22:47:58.717Z,9.27
2022-11-29T22:52:10.308Z,9.23
2022-11-29T22:56:27.746Z,9.17
2022-11-29T23:00:44.029Z,9.10
2022-11-29T23:04:55.760Z,9.09
2022-11-29T23:09:16.602Z,9.06
2022-11-29T23:13:28.440Z,9.03
2022-11-29T23:17:40.159Z,8.96
2022-11-29T23:21:51.975Z,8.94
2022-11-29T23:26:07.348Z,8.90
2022-11-29T23:30:18.886Z,8.86
2022-11-29T23:34:30.402Z,8.89
2022-11-29T23:38:42.267Z,8.86
2022-11-29T23:42:54.158Z,8.88
2022-11-29T23:47:05.626Z,8.89
2022-11-29T23:51:18.613Z,8.88
2022-11-29T23:55:30.165Z,8.90
2022-11-29T23:59:41.636Z,8.84
